createdAt,value
2018-03-19T00:01:22.591Z,17.60
2018-03-19T00:03:49.241Z,15.32
2018-03-19T00:06:15.901Z,15.32
2018-03-19T00:08:42.178Z,16.08
2018-03-19T00:11:08.431Z,16.20
2018-03-19T00:13:34.663Z,16.10
2018-03-19T00:16:00.910Z,18.00
2018-03-19T00:18:28.102Z,15.70
2018-03-19T00:20:54.352Z,17.10
2018-03-19T00:23:20.582Z,15.93
2018-03-19T00:25:47.594Z,14.90
2018-03-19T00:28:14.351Z,16.25
2018-03-19T00:30:40.627Z,16.23
2018-03-19T00:33:06.919Z,14.73
2018-03-19T00:35:33.556Z,17.45
2018-03-19T00:38:00.197Z,14.50
2018-03-19T00:40:26.877Z,15.77
2018-03-19T00:42:53.164Z,14.85
2018-03-19T00:45:19.393Z,15.15
2018-03-19T00:47:45.683Z,16.37
2018-03-19T00:50:11.939Z,15.80
2018-03-19T00:52:38.196Z,17.20
2018-03-19T00:55:04.501Z,16.23
2018-03-19T00:57:30.823Z,16.08
2018-03-19T00:59:57.104Z,16.08
2018-03-19T01:02:23.334Z,15.95
2018-03-19T01:04:49.624Z,16.15
2018-03-19T01:07:15.932Z,16.33
2018-03-19T01:09:42.589Z,15.00
2018-03-19T01:12:08.847Z,14.82
2018-03-19T01:14:35.094Z,16.00
2018-03-19T01:17:01.321Z,15.32
2018-03-19T01:19:27.612Z,16.75
2018-03-19T01:21:54.258Z,16.30
2018-03-19T01:24:21.740Z,16.45
2018-03-19T01:26:49.515Z,15.60
2018-03-19T01:29:15.755Z,13.82
2018-03-19T01:31:41.987Z,15.85
2018-03-19T01:34:08.282Z,16.05
2018-03-19T01:36:34.490Z,14.87
2018-03-19T01:39:00.719Z,15.23
2018-03-19T01:41:26.979Z,15.77
2018-03-19T01:43:53.628Z,14.38
2018-03-19T01:46:19.908Z,16.55
2018-03-19T01:48:46.140Z,14.85
2018-03-19T01:51:12.429Z,15.23
2018-03-19T01:53:38.688Z,15.27
2018-03-19T01:56:05.335Z,16.05
2018-03-19T01:58:31.568Z,14.20
2018-03-19T02:00:58.167Z,15.07
2018-03-19T02:03:24.447Z,16.25
2018-03-19T02:05:50.712Z,16.67
2018-03-19T02:08:16.970Z,14.52
2018-03-19T02:10:44.268Z,14.30
2018-03-19T02:13:10.887Z,14.68
2018-03-19T02:15:37.160Z,15.32
2018-03-19T02:18:03.438Z,16.10
2018-03-19T02:20:29.722Z,16.80
2018-03-19T02:22:55.960Z,16.85
2018-03-19T02:25:22.239Z,14.93
2018-03-19T02:27:48.492Z,17.58
2018-03-19T02:30:14.801Z,15.60
2018-03-19T02:32:41.099Z,15.98
2018-03-19T02:35:07.701Z,15.98
2018-03-19T02:37:33.923Z,15.30
2018-03-19T02:40:00.216Z,16.15
2018-03-19T02:42:26.819Z,16.20
2018-03-19T02:44:53.122Z,17.87
2018-03-19T02:47:19.396Z,16.35
2018-03-19T02:49:45.620Z,17.45
2018-03-19T02:52:11.866Z,17.65
2018-03-19T02:54:38.125Z,16.87
2018-03-19T02:57:04.718Z,17.42
2018-03-19T02:59:31.008Z,17.17
2018-03-19T03:01:58.368Z,17.40
2018-03-19T03:04:24.639Z,15.95
2018-03-19T03:06:50.896Z,17.58
2018-03-19T03:09:17.140Z,16.42
2018-03-19T03:11:43.500Z,16.85
2018-03-19T03:14:10.134Z,16.30
2018-03-19T03:16:36.426Z,18.17
2018-03-19T03:19:03.272Z,18.23
2018-03-19T03:21:29.546Z,17.05
2018-03-19T03:23:55.798Z,17.73
2018-03-19T03:26:22.445Z,16.83
2018-03-19T03:28:49.086Z,17.65
2018-03-19T03:31:15.706Z,16.50
2018-03-19T03:33:41.978Z,17.73
2018-03-19T03:36:08.607Z,18.00
2018-03-19T03:38:35.257Z,16.27
2018-03-19T03:41:01.879Z,18.17
2018-03-19T03:43:28.098Z,17.02
2018-03-19T03:45:54.395Z,17.48
2018-03-19T03:48:20.661Z,17.92
2018-03-19T03:50:46.909Z,15.90
2018-03-19T03:53:14.173Z,15.57
2018-03-19T03:55:40.406Z,18.12
2018-03-19T03:58:06.706Z,16.45
2018-03-19T04:00:32.972Z,17.27
2018-03-19T04:02:59.208Z,17.08
2018-03-19T04:05:26.010Z,17.20
2018-03-19T04:07:52.292Z,17.65
2018-03-19T04:10:18.569Z,15.90
2018-03-19T04:12:44.822Z,17.50
2018-03-19T04:15:11.109Z,15.82
2018-03-19T04:17:37.366Z,19.08
2018-03-19T04:20:03.989Z,16.77
2018-03-19T04:22:30.247Z,17.62
2018-03-19T04:24:56.513Z,15.48
2018-03-19T04:27:22.792Z,16.10
2018-03-19T04:29:49.484Z,16.85
2018-03-19T04:32:15.787Z,17.12
2018-03-19T04:34:42.430Z,16.10
2018-03-19T04:37:09.102Z,17.73
2018-03-19T04:39:35.376Z,17.10
2018-03-19T04:42:01.658Z,17.10
2018-03-19T04:44:27.936Z,15.20
2018-03-19T04:46:54.190Z,15.95
2018-03-19T04:49:20.493Z,17.40
2018-03-19T04:51:46.755Z,16.83
2018-03-19T04:54:14.011Z,15.85
2018-03-19T04:56:40.254Z,16.80
2018-03-19T04:59:06.574Z,15.50
2018-03-19T05:01:32.818Z,16.23
2018-03-19T05:03:59.097Z,15.77
2018-03-19T05:06:25.345Z,17.27
2018-03-19T05:08:51.605Z,15.80
2018-03-19T05:11:17.824Z,17.67
2018-03-19T05:13:44.984Z,17.75
2018-03-19T05:16:11.820Z,15.77
2018-03-19T05:18:38.057Z,16.62
2018-03-19T05:21:04.341Z,17.27
2018-03-19T05:23:30.589Z,16.12
2018-03-19T05:25:57.212Z,16.35
2018-03-19T05:28:23.479Z,18.37
2018-03-19T05:30:50.580Z,17.30
2018-03-19T05:33:16.828Z,16.70
2018-03-19T05:35:43.101Z,18.25
2018-03-19T05:38:10.023Z,16.95
2018-03-19T05:40:36.254Z,17.73
2018-03-19T05:43:02.511Z,17.30
2018-03-19T05:45:29.162Z,17.33
2018-03-19T05:47:55.394Z,17.75
2018-03-19T05:50:22.355Z,18.52
2018-03-19T05:52:48.963Z,18.58
2018-03-19T05:55:15.898Z,19.20
2018-03-19T05:57:42.219Z,18.25
2018-03-19T06:00:08.523Z,20.23
2018-03-19T06:02:34.795Z,20.02
2018-03-19T06:05:01.081Z,18.52
2018-03-19T06:07:27.688Z,18.58
2018-03-19T06:09:53.977Z,18.37
2018-03-19T06:12:20.325Z,18.25
2018-03-19T06:14:46.612Z,17.27
2018-03-19T06:17:12.938Z,19.85
2018-03-19T06:19:39.249Z,17.85
2018-03-19T06:22:05.516Z,19.00
2018-03-19T06:24:32.664Z,17.60
2018-03-19T06:26:58.932Z,19.42
2018-03-19T06:29:25.600Z,17.30
2018-03-19T06:31:52.224Z,18.42
2018-03-19T06:34:18.906Z,18.67
2018-03-19T06:36:45.771Z,19.50
2018-03-19T06:39:12.108Z,17.98
2018-03-19T06:41:38.382Z,18.80
2018-03-19T06:44:05.015Z,20.12
2018-03-19T06:46:31.575Z,18.83
2018-03-19T06:48:58.887Z,18.27
2018-03-19T06:51:25.181Z,17.98
2018-03-19T06:53:51.493Z,20.37
2018-03-19T06:56:18.185Z,17.23
2018-03-19T06:58:45.230Z,17.33
2018-03-19T07:01:11.520Z,19.48
2018-03-19T07:03:37.824Z,18.00
2018-03-19T07:06:04.121Z,16.48
2018-03-19T07:08:30.464Z,18.48
2018-03-19T07:10:56.705Z,19.65
2018-03-19T07:13:22.972Z,17.27
2018-03-19T07:15:49.272Z,19.10
2018-03-19T07:18:15.618Z,16.40
2018-03-19T07:20:41.953Z,17.05
2018-03-19T07:23:08.215Z,18.27
2018-03-19T07:25:34.471Z,17.12
2018-03-19T07:28:00.772Z,17.10
2018-03-19T07:30:27.057Z,20.00
2018-03-19T07:32:53.660Z,17.42
2018-03-19T07:35:20.005Z,19.48
2018-03-19T07:37:46.300Z,18.45
2018-03-19T07:40:12.568Z,18.70
2018-03-19T07:42:38.874Z,16.25
2018-03-19T07:45:05.195Z,17.75
2018-03-19T07:47:31.846Z,18.85
2018-03-19T07:49:58.171Z,19.35
2018-03-19T07:52:24.805Z,16.92
2018-03-19T07:54:51.445Z,20.05
2018-03-19T07:57:18.420Z,19.20
2018-03-19T07:59:44.708Z,17.73
2018-03-19T08:02:11.035Z,18.80
2018-03-19T08:04:37.348Z,19.15
2018-03-19T08:07:03.660Z,18.33
2018-03-19T08:09:29.923Z,18.35
2018-03-19T08:11:56.212Z,18.90
2018-03-19T08:14:23.226Z,21.70
2018-03-19T08:16:49.503Z,19.00
2018-03-19T08:19:16.216Z,19.20
2018-03-19T08:21:42.499Z,17.73
2018-03-19T08:24:08.766Z,18.62
2018-03-19T08:26:35.876Z,19.08
2018-03-19T08:29:02.591Z,18.92
2018-03-19T08:31:28.886Z,18.95
2018-03-19T08:33:55.122Z,18.12
2018-03-19T08:36:21.465Z,18.02
2018-03-19T08:38:47.747Z,20.08
2018-03-19T08:41:15.149Z,18.75
2018-03-19T08:43:41.468Z,18.85
2018-03-19T08:46:08.279Z,20.88
2018-03-19T08:48:34.556Z,21.98
2018-03-19T08:51:01.118Z,20.80
2018-03-19T08:53:27.393Z,21.48
2018-03-19T08:55:53.663Z,21.98
2018-03-19T08:58:20.328Z,19.98
2018-03-19T09:00:46.683Z,21.15
2018-03-19T09:03:12.928Z,21.02
2018-03-19T09:05:39.567Z,22.10
2018-03-19T09:08:05.850Z,22.50
2018-03-19T09:10:32.469Z,20.75
2018-03-19T09:12:58.761Z,20.75
2018-03-19T09:15:25.036Z,20.08
2018-03-19T09:17:51.604Z,20.20
2018-03-19T09:20:18.256Z,20.00
2018-03-19T09:22:44.620Z,19.65
2018-03-19T09:25:10.964Z,18.40
2018-03-19T09:27:37.209Z,20.00
2018-03-19T09:30:03.534Z,19.98
2018-03-19T09:32:30.150Z,19.37
2018-03-19T09:34:56.421Z,18.92
2018-03-19T09:37:22.698Z,18.62
2018-03-19T09:39:49.281Z,20.60
2018-03-19T09:42:16.586Z,18.87
2018-03-19T09:44:42.842Z,20.05
2018-03-19T09:47:09.803Z,19.33
2018-03-19T09:49:36.471Z,18.55
2018-03-19T09:52:02.744Z,20.85
2018-03-19T09:54:29.057Z,20.15
2018-03-19T09:56:55.363Z,20.10
2018-03-19T09:59:21.656Z,20.55
2018-03-19T10:01:47.952Z,19.42
2018-03-19T10:04:16.003Z,21.55
2018-03-19T10:06:42.626Z,22.30
2018-03-19T10:09:08.870Z,20.27
2018-03-19T10:11:35.829Z,21.80
2018-03-19T10:14:02.497Z,22.15
2018-03-19T10:16:28.808Z,19.58
2018-03-19T10:18:55.475Z,22.23
2018-03-19T10:21:21.744Z,20.55
2018-03-19T10:23:48.019Z,58.13
2018-03-19T10:26:14.781Z,24.30
2018-03-19T10:28:41.055Z,21.87
2018-03-19T10:31:08.171Z,20.62
2018-03-19T10:33:34.810Z,19.52
2018-03-19T10:36:01.083Z,21.98
2018-03-19T10:38:27.372Z,29.73
2018-03-19T10:40:54.350Z,21.10
2018-03-19T10:43:20.657Z,21.70
2018-03-19T10:45:47.298Z,19.10
2018-03-19T10:48:13.615Z,20.77
2018-03-19T10:50:40.542Z,23.60
2018-03-19T10:53:06.815Z,18.75
2018-03-19T10:55:33.124Z,19.45
2018-03-19T10:58:00.379Z,19.10
2018-03-19T11:00:26.624Z,17.50
2018-03-19T11:02:53.864Z,21.42
2018-03-19T11:05:26.195Z,20.42
2018-03-19T11:21:08.990Z,18.98
2018-03-19T11:23:35.215Z,18.75
2018-03-19T11:26:01.845Z,21.45
2018-03-19T11:28:28.541Z,22.05
2018-03-19T11:30:55.121Z,26.52
2018-03-19T11:33:21.398Z,24.33
2018-03-19T11:35:47.650Z,22.87
2018-03-19T11:38:13.874Z,22.35
2018-03-19T11:40:40.109Z,20.90
2018-03-19T11:43:06.391Z,21.85
2018-03-19T11:45:32.642Z,29.23
2018-03-19T11:47:58.886Z,21.87
2018-03-19T11:50:25.582Z,20.77
2018-03-19T11:52:54.083Z,21.15
2018-03-19T11:55:20.257Z,24.12
2018-03-19T11:57:46.752Z,22.98
2018-03-19T12:00:12.949Z,20.37
2018-03-19T12:02:39.180Z,24.12
2018-03-19T12:05:06.228Z,27.73
2018-03-19T12:07:32.821Z,28.30
2018-03-19T12:09:59.054Z,24.27
2018-03-19T12:12:25.328Z,22.17
2018-03-19T12:14:51.925Z,22.52
2018-03-19T12:17:18.170Z,23.10
2018-03-19T12:19:44.413Z,26.92
2018-03-19T12:22:11.028Z,29.52
2018-03-19T12:24:37.238Z,27.08
2018-03-19T12:27:03.485Z,27.67
2018-03-19T12:29:29.716Z,22.87
2018-03-19T12:31:55.927Z,26.02
2018-03-19T12:34:22.170Z,19.23
2018-03-19T12:36:48.406Z,20.20
2018-03-19T12:39:14.663Z,18.35
2018-03-19T12:41:41.271Z,18.73
2018-03-19T12:44:07.509Z,18.25
2018-03-19T12:46:34.110Z,21.27
2018-03-19T12:49:00.357Z,20.98
2018-03-19T12:51:30.509Z,19.98
2018-03-19T12:53:57.153Z,18.42
2018-03-19T12:56:23.406Z,22.08
2018-03-19T12:58:49.660Z,19.33
2018-03-19T13:01:16.813Z,20.83
2018-03-19T13:03:43.037Z,17.98
2018-03-19T13:06:09.230Z,18.35
2018-03-19T13:08:35.488Z,17.70
2018-03-19T13:11:01.716Z,18.45
2018-03-19T13:13:27.942Z,16.15
2018-03-19T13:15:54.133Z,15.35
2018-03-19T13:18:20.839Z,17.00
2018-03-19T13:20:47.112Z,17.27
2018-03-19T13:23:13.329Z,16.50
2018-03-19T13:25:39.579Z,17.95
2018-03-19T13:28:05.791Z,17.90
2018-03-19T13:30:32.033Z,17.15
2018-03-19T13:32:58.612Z,16.85
2018-03-19T13:35:24.836Z,17.45
2018-03-19T13:37:51.044Z,17.00
2018-03-19T13:40:17.269Z,16.92
2018-03-19T13:42:43.525Z,17.25
2018-03-19T13:45:10.728Z,17.40
2018-03-19T13:47:37.639Z,15.60
2018-03-19T13:50:03.907Z,15.27
2018-03-19T13:52:30.104Z,14.50
2018-03-19T13:54:56.710Z,16.27
2018-03-19T13:57:22.972Z,18.73
2018-03-19T13:59:49.200Z,17.02
2018-03-19T14:02:15.445Z,21.27
2018-03-19T14:04:41.710Z,19.12
2018-03-19T14:07:07.949Z,19.92
2018-03-19T14:09:34.184Z,18.75
2018-03-19T14:12:00.468Z,19.65
2018-03-19T14:14:26.716Z,18.33
2018-03-19T14:16:52.936Z,17.52
2018-03-19T14:19:19.166Z,17.33
2018-03-19T14:21:45.365Z,17.83
2018-03-19T14:24:11.566Z,17.90
2018-03-19T14:26:37.810Z,18.08
2018-03-19T14:29:04.055Z,18.60
2018-03-19T14:31:30.301Z,19.00
2018-03-19T14:33:56.574Z,18.30
2018-03-19T14:36:23.214Z,17.12
2018-03-19T14:38:49.807Z,19.12
2018-03-19T14:41:17.205Z,18.12
2018-03-19T14:43:43.434Z,20.55
2018-03-19T14:46:09.676Z,20.20
2018-03-19T14:48:35.953Z,19.12
2018-03-19T14:51:02.206Z,19.12
2018-03-19T14:53:28.448Z,19.92
2018-03-19T14:55:55.115Z,18.85
2018-03-19T14:58:21.320Z,20.92
2018-03-19T15:00:47.957Z,20.55
2018-03-19T15:03:14.578Z,19.35
2018-03-19T15:05:40.797Z,19.05
2018-03-19T15:08:07.300Z,19.48
2018-03-19T15:10:33.516Z,19.60
2018-03-19T15:12:59.736Z,22.10
2018-03-19T15:15:25.978Z,23.50
2018-03-19T15:17:52.209Z,20.08
2018-03-19T15:20:18.477Z,20.75
2018-03-19T15:22:45.008Z,20.90
2018-03-19T15:25:11.236Z,19.90
2018-03-19T15:27:37.512Z,20.83
2018-03-19T15:30:03.781Z,20.67
2018-03-19T15:32:30.043Z,21.67
2018-03-19T15:34:56.309Z,21.40
2018-03-19T15:37:22.571Z,21.80
2018-03-19T15:39:48.810Z,21.55
2018-03-19T15:42:15.314Z,19.27
2018-03-19T15:44:41.813Z,20.83
2018-03-19T15:47:08.058Z,21.83
2018-03-19T15:49:34.303Z,21.27
2018-03-19T15:52:00.972Z,24.05
2018-03-19T15:54:27.186Z,22.15
2018-03-19T15:56:53.433Z,22.23
2018-03-19T15:59:19.737Z,22.85
2018-03-19T16:01:46.038Z,21.98
2018-03-19T16:04:12.309Z,22.25
2018-03-19T16:06:38.601Z,22.87
2018-03-19T16:09:04.881Z,22.77
2018-03-19T16:11:32.868Z,23.15
2018-03-19T16:13:59.563Z,23.08
2018-03-19T16:16:25.815Z,21.58
2018-03-19T16:18:52.069Z,23.10
2018-03-19T16:21:18.574Z,22.30
2018-03-19T16:23:44.784Z,22.20
2018-03-19T16:26:11.044Z,21.50
2018-03-19T16:28:37.648Z,23.02
2018-03-19T16:31:03.883Z,21.37
2018-03-19T16:33:30.109Z,22.55
2018-03-19T16:35:56.409Z,22.08
2018-03-19T16:38:23.647Z,22.80
2018-03-19T16:40:49.840Z,22.42
2018-03-19T16:43:16.078Z,22.65
2018-03-19T16:45:42.708Z,24.02
2018-03-19T16:48:09.327Z,22.87
2018-03-19T16:50:35.564Z,22.02
2018-03-19T16:53:01.812Z,23.08
2018-03-19T16:55:28.100Z,22.02
2018-03-19T16:57:54.338Z,23.25
2018-03-19T17:00:20.596Z,23.15
2018-03-19T17:02:46.910Z,24.17
2018-03-19T17:05:13.200Z,25.27
2018-03-19T17:07:39.441Z,24.23
2018-03-19T17:10:05.730Z,23.90
2018-03-19T17:12:32.322Z,22.33
2018-03-19T17:14:58.600Z,22.02
2018-03-19T17:17:25.284Z,20.88
2018-03-19T17:19:51.520Z,23.83
2018-03-19T17:22:18.434Z,24.52
2018-03-19T17:24:45.169Z,23.55
2018-03-19T17:27:11.397Z,22.60
2018-03-19T17:29:37.605Z,21.73
2018-03-19T17:32:04.148Z,21.15
2018-03-19T17:34:30.379Z,22.20
2018-03-19T17:36:56.660Z,23.62
2018-03-19T17:39:22.996Z,22.50
2018-03-19T17:41:49.236Z,21.87
2018-03-19T17:44:15.529Z,22.87
2018-03-19T17:46:41.821Z,23.08
2018-03-19T17:49:08.083Z,22.00
2018-03-19T17:51:34.350Z,22.58
2018-03-19T17:54:00.668Z,22.42
2018-03-19T17:56:26.931Z,21.62
2018-03-19T17:58:53.507Z,21.70
2018-03-19T18:01:20.205Z,21.10
2018-03-19T18:03:46.775Z,21.40
2018-03-19T18:06:13.057Z,23.60
2018-03-19T18:08:39.700Z,22.08
2018-03-19T18:11:06.426Z,20.65
2018-03-19T18:13:32.651Z,21.35
2018-03-19T18:15:58.949Z,22.33
2018-03-19T18:18:25.213Z,21.02
2018-03-19T18:20:51.821Z,20.92
2018-03-19T18:23:18.087Z,19.85
2018-03-19T18:25:44.705Z,20.70
2018-03-19T18:28:10.911Z,19.65
2018-03-19T18:30:37.456Z,21.08
2018-03-19T18:33:03.743Z,22.02
2018-03-19T18:35:29.965Z,20.83
2018-03-19T18:37:56.220Z,21.77
2018-03-19T18:40:23.510Z,21.90
2018-03-19T18:42:49.797Z,25.50
2018-03-19T18:45:16.687Z,23.87
2018-03-19T18:47:42.923Z,21.67
2018-03-19T18:50:09.243Z,28.00
2018-03-19T18:52:35.505Z,25.00
2018-03-19T18:55:01.746Z,24.70
2018-03-19T18:57:28.018Z,24.90
2018-03-19T18:59:54.268Z,28.60
2018-03-19T19:02:20.523Z,26.17
2018-03-19T19:04:46.823Z,23.67
2018-03-19T19:07:13.082Z,26.12
2018-03-19T19:09:39.404Z,28.87
2018-03-19T19:12:05.706Z,24.37
2018-03-19T19:14:31.946Z,24.55
2018-03-19T19:16:58.614Z,22.98
2018-03-19T19:19:24.967Z,24.58
2018-03-19T19:21:51.281Z,30.98
2018-03-19T19:24:17.519Z,26.10
2018-03-19T19:26:43.832Z,24.08
2018-03-19T19:29:10.140Z,22.98
2018-03-19T19:31:36.740Z,22.50
2018-03-19T19:34:03.152Z,22.80
2018-03-19T19:36:29.437Z,21.62
2018-03-19T19:38:56.109Z,21.50
2018-03-19T19:41:22.936Z,21.67
2018-03-19T19:43:49.265Z,20.77
2018-03-19T19:46:15.533Z,21.77
2018-03-19T19:48:41.842Z,21.50
2018-03-19T19:51:08.119Z,21.40
2018-03-19T19:53:34.398Z,21.05
2018-03-19T19:56:00.704Z,21.75
2018-03-19T19:58:26.974Z,22.87
2018-03-19T20:00:53.245Z,19.50
2018-03-19T20:03:19.568Z,19.00
2018-03-19T20:05:46.248Z,19.62
2018-03-19T20:08:12.572Z,18.02
2018-03-19T20:10:38.933Z,17.48
2018-03-19T20:13:05.528Z,19.45
2018-03-19T20:15:31.811Z,26.30
2018-03-19T20:17:58.092Z,20.60
2018-03-19T20:20:24.400Z,22.30
2018-03-19T20:22:51.295Z,20.42
2018-03-19T20:25:17.545Z,21.75
2018-03-19T20:27:43.837Z,19.55
2018-03-19T20:30:10.085Z,20.50
2018-03-19T20:32:36.354Z,21.00
2018-03-19T20:35:03.075Z,20.60
2018-03-19T20:37:29.356Z,19.95
2018-03-19T20:39:56.331Z,20.10
2018-03-19T20:42:22.592Z,19.42
2018-03-19T20:44:48.981Z,20.20
2018-03-19T20:47:15.641Z,19.52
2018-03-19T20:49:42.053Z,19.25
2018-03-19T20:52:08.361Z,19.35
2018-03-19T20:54:34.642Z,19.52
2018-03-19T20:57:01.039Z,18.95
2018-03-19T20:59:28.155Z,18.37
2018-03-19T21:01:54.459Z,18.80
2018-03-19T21:04:20.720Z,18.52
2018-03-19T21:06:46.981Z,18.85
2018-03-19T21:09:13.650Z,17.83
2018-03-19T21:11:40.000Z,17.95
2018-03-19T21:14:06.345Z,18.50
2018-03-19T21:16:32.995Z,17.27
2018-03-19T21:18:59.277Z,17.17
2018-03-19T21:21:25.526Z,17.92
2018-03-19T21:23:51.801Z,19.90
2018-03-19T21:26:18.062Z,17.48
2018-03-19T21:28:44.394Z,17.30
2018-03-19T21:31:10.628Z,18.05
2018-03-19T21:33:36.926Z,18.58
2018-03-19T21:36:03.221Z,19.55
2018-03-19T21:38:29.511Z,18.62
2018-03-19T21:40:55.746Z,16.17
2018-03-19T21:43:22.028Z,18.10
2018-03-19T21:45:48.292Z,17.20
2018-03-19T21:48:14.537Z,17.55
2018-03-19T21:50:41.169Z,15.85
2018-03-19T21:53:07.398Z,17.20
2018-03-19T21:55:33.694Z,16.33
2018-03-19T21:57:59.974Z,16.12
2018-03-19T22:00:26.229Z,17.42
2018-03-19T22:02:52.531Z,16.55
2018-03-19T22:05:18.812Z,18.70
2018-03-19T22:07:45.042Z,18.30
2018-03-19T22:10:11.609Z,15.70
2018-03-19T22:12:37.834Z,17.37
2018-03-19T22:15:04.080Z,18.45
2018-03-19T22:17:30.751Z,17.70
2018-03-19T22:19:56.986Z,16.98
2018-03-19T22:22:23.219Z,16.00
2018-03-19T22:24:49.472Z,16.30
2018-03-19T22:27:15.803Z,15.93
2018-03-19T22:29:42.083Z,16.95
2018-03-19T22:32:08.337Z,19.02
2018-03-19T22:34:34.583Z,16.52
2018-03-19T22:37:00.836Z,17.52
2018-03-19T22:39:27.168Z,17.48
2018-03-19T22:41:53.416Z,16.80
2018-03-19T22:44:19.997Z,17.12
2018-03-19T22:46:46.210Z,16.70
2018-03-19T22:49:12.451Z,15.50
2018-03-19T22:51:38.663Z,16.65
2018-03-19T22:54:05.538Z,15.27
2018-03-19T22:56:32.392Z,17.48
2018-03-19T22:58:58.625Z,16.87
2018-03-19T23:01:24.870Z,16.83
2018-03-19T23:03:51.482Z,17.87
2018-03-19T23:06:17.702Z,17.08
2018-03-19T23:08:43.930Z,16.50
2018-03-19T23:11:10.173Z,16.95
2018-03-19T23:13:36.785Z,17.65
2018-03-19T23:16:03.027Z,18.40
2018-03-19T23:18:29.277Z,17.02
2018-03-19T23:20:55.864Z,17.30
2018-03-19T23:23:22.065Z,18.55
2018-03-19T23:25:48.342Z,17.37
2018-03-19T23:28:14.576Z,16.92
2018-03-19T23:30:40.858Z,18.87
2018-03-19T23:33:07.118Z,18.70
2018-03-19T23:35:33.333Z,18.15
2018-03-19T23:37:59.563Z,17.62
2018-03-19T23:40:25.813Z,19.60
2018-03-19T23:42:52.029Z,18.55
2018-03-19T23:45:18.271Z,20.83
2018-03-19T23:47:44.519Z,20.10
2018-03-19T23:50:10.734Z,19.50
2018-03-19T23:52:36.978Z,18.90
2018-03-19T23:55:03.271Z,19.40
2018-03-19T23:57:29.502Z,19.62
2018-03-19T23:59:55.720Z,19.20
